Time;durP1;ratioP1;P1;durP2;ratioP2;P2;SDS_P1;SDS_P2;PMS_P1;PMS_P2;Temp;Humidity;BMP_temperature;BMP_pressure;BME280_temperature;BME280_humidity;BME280_pressure;Samples;Min_cycle;Max_cycle;Signal;HPM_P1;HPM_P2
2022/03/24 00:01:11;;;;;;;;;33.00;28.33;;;;;23.13;51.83;102515.97;5055344;28;60367;-67
2022/03/24 00:03:36;;;;;;;;;25.00;22.00;;;;;23.08;51.80;102510.66;5055749;28;55073;-66
2022/03/24 00:06:02;;;;;;;;;27.33;26.00;;;;;23.12;51.84;102522.28;5055185;28;54163;-67
2022/03/24 00:08:27;;;;;;;;;31.67;28.00;;;;;23.12;51.95;102527.69;5021952;28;45553;-66
2022/03/24 00:10:53;;;;;;;;;32.00;28.00;;;;;23.11;51.81;102518.69;5055828;28;55923;-66
2022/03/24 00:13:19;;;;;;;;;26.00;25.67;;;;;23.10;51.70;102516.91;5051115;28;45521;-66
2022/03/24 00:15:44;;;;;;;;;28.67;27.33;;;;;23.10;51.76;102516.00;5056505;28;45248;-66
2022/03/24 00:18:10;;;;;;;;;28.33;25.33;;;;;23.09;51.83;102517.81;5052016;28;46239;-66
2022/03/24 00:20:36;;;;;;;;;24.00;24.00;;;;;23.07;51.76;102502.59;5037670;28;45517;-68
2022/03/24 00:23:01;;;;;;;;;29.00;25.67;;;;;23.08;51.76;102510.66;5055043;28;45726;-66
2022/03/24 00:25:27;;;;;;;;;30.33;25.67;;;;;23.09;51.74;102503.47;5056050;28;45668;-67
2022/03/24 00:27:52;;;;;;;;;33.67;25.67;;;;;23.08;51.78;102499.88;5037793;28;61164;-66
2022/03/24 00:30:18;;;;;;;;;29.33;26.00;;;;;23.05;51.85;102494.53;5055311;28;58644;-67
2022/03/24 00:32:43;;;;;;;;;35.33;28.33;;;;;23.05;51.67;102488.25;5055392;28;51928;-66
2022/03/24 00:35:09;;;;;;;;;29.00;25.00;;;;;23.05;51.89;102494.53;5055389;28;53412;-66
2022/03/24 00:37:35;;;;;;;;;30.00;29.00;;;;;23.05;51.82;102499.03;5054317;28;45984;-66
2022/03/24 00:40:06;;;;;;;;;31.00;24.33;;;;;23.05;51.54;102496.31;5054716;28;45293;-67
2022/03/24 00:42:31;;;;;;;;;27.67;25.67;;;;;23.04;51.85;102489.16;5055391;28;45447;-66
2022/03/24 00:44:57;;;;;;;;;31.33;26.00;;;;;23.00;51.96;102491.88;5037755;28;45399;-66
2022/03/24 00:47:23;;;;;;;;;28.33;24.00;;;;;23.03;51.94;102496.34;5054035;28;45868;-66
2022/03/24 00:49:48;;;;;;;;;27.33;24.67;;;;;23.03;52.06;102498.16;5037319;28;58688;-66
2022/03/24 00:52:13;;;;;;;;;22.67;21.00;;;;;22.99;52.16;102483.84;5037413;28;45381;-67
2022/03/24 00:54:39;;;;;;;;;34.33;28.67;;;;;23.02;52.05;102496.38;5055528;28;55965;-66
2022/03/24 00:57:06;;;;;;;;;28.33;24.00;;;;;23.00;51.78;102494.56;5055379;28;45605;-66
2022/03/24 00:59:31;;;;;;;;;25.00;23.00;;;;;23.01;52.00;102487.41;5055668;28;45427;-67
2022/03/24 01:01:56;;;;;;;;;23.67;21.67;;;;;23.00;51.81;102497.28;5055460;28;50885;-66
2022/03/24 01:04:22;;;;;;;;;30.33;26.33;;;;;22.96;51.87;102484.78;5058943;28;45329;-66
2022/03/24 01:06:47;;;;;;;;;29.33;26.00;;;;;22.98;51.99;102485.63;5058874;28;46631;-66
2022/03/24 01:09:13;;;;;;;;;25.67;23.33;;;;;22.98;51.68;102482.06;5039891;28;61245;-66
2022/03/24 01:11:38;;;;;;;;;32.00;24.00;;;;;22.96;51.95;102479.41;5058337;28;53970;-66
2022/03/24 01:14:05;;;;;;;;;33.33;25.33;;;;;22.97;52.16;102481.16;5039847;28;45678;-66
2022/03/24 01:16:31;;;;;;;;;27.67;23.67;;;;;22.96;51.94;102487.47;5058510;28;45831;-66
2022/03/24 01:18:57;;;;;;;;;24.67;23.67;;;;;22.96;52.19;102482.09;5041182;28;45335;-66
2022/03/24 01:21:22;;;;;;;;;26.00;22.33;;;;;22.95;52.05;102482.97;5058713;28;45295;-68
2022/03/24 01:23:47;;;;;;;;;25.67;25.67;;;;;22.95;52.10;102482.09;5040231;28;52587;-67
2022/03/24 01:26:13;;;;;;;;;24.67;22.67;;;;;22.95;51.67;102482.09;5058077;28;62278;-66
2022/03/24 01:28:39;;;;;;;;;26.33;22.67;;;;;22.95;51.88;102474.91;5040212;28;45476;-66
2022/03/24 01:31:05;;;;;;;;;24.67;22.00;;;;;22.94;51.99;102474.94;5040967;28;45310;-66
2022/03/24 01:33:31;;;;;;;;;28.67;26.67;;;;;22.94;52.06;102472.22;5058115;28;45277;-66
2022/03/24 01:35:56;;;;;;;;;24.00;23.00;;;;;22.94;51.98;102480.31;5058299;28;46091;-67
2022/03/24 01:38:23;;;;;;;;;27.33;25.00;;;;;22.93;51.77;102471.34;5057489;28;57379;-66
2022/03/24 01:40:49;;;;;;;;;24.67;22.67;;;;;22.92;52.01;102472.25;5057952;28;45405;-67
2022/03/24 01:43:14;;;;;;;;;25.00;23.33;;;;;22.92;52.24;102466.88;5058611;28;45299;-67
2022/03/24 01:45:40;;;;;;;;;24.67;23.33;;;;;22.91;52.09;102467.78;5058216;28;45930;-67
2022/03/24 01:48:09;;;;;;;;;26.33;23.00;;;;;22.91;52.44;102459.72;5058371;28;45478;-66
2022/03/24 01:50:35;;;;;;;;;26.00;24.67;;;;;22.91;51.91;102458.81;5040746;28;45405;-66
2022/03/24 01:53:01;;;;;;;;;24.00;22.00;;;;;22.91;52.16;102467.78;5058287;28;45531;-67
2022/03/24 01:55:26;;;;;;;;;24.67;24.00;;;;;22.91;52.13;102459.72;5058054;28;46365;-66
2022/03/24 01:57:52;;;;;;;;;25.00;23.33;;;;;22.89;52.07;102455.25;5057549;28;60455;-67
2022/03/24 02:00:19;;;;;;;;;29.67;23.67;;;;;22.91;52.01;102462.41;5040106;28;45444;-66
2022/03/24 02:02:44;;;;;;;;;24.33;22.33;;;;;22.89;51.89;102442.66;5057796;28;45448;-68
2022/03/24 02:05:10;;;;;;;;;28.00;24.33;;;;;22.91;51.70;102448.94;5057482;28;46438;-67
2022/03/24 02:07:36;;;;;;;;;24.00;23.00;;;;;22.90;52.06;102451.63;5056516;28;45441;-66
2022/03/24 02:10:01;;;;;;;;;28.33;24.67;;;;;22.89;52.27;102448.03;5040176;28;45324;-67
2022/03/24 02:12:27;;;;;;;;;22.67;22.00;;;;;22.90;51.94;102462.41;5038913;28;45411;-66
2022/03/24 02:14:57;;;;;;;;;33.00;25.67;;;;;22.89;51.78;102461.50;5051703;28;47456;-67
2022/03/24 02:17:27;;;;;;;;;24.33;23.33;;;;;22.88;51.79;102446.28;5057383;28;45354;-67
2022/03/24 02:19:52;;;;;;;;;27.00;23.67;;;;;22.89;51.92;102448.03;5025389;28;45503;-67
2022/03/24 02:22:18;;;;;;;;;23.00;20.00;;;;;22.89;52.16;102445.34;5057245;28;55461;-67
2022/03/24 02:24:45;;;;;;;;;22.00;21.00;;;;;22.90;51.67;102447.13;5056019;28;62013;-66
2022/03/24 02:27:11;;;;;;;;;26.00;23.33;;;;;22.90;51.78;102449.81;5040385;28;45246;-65
2022/03/24 02:29:37;;;;;;;;;22.33;20.67;;;;;22.89;52.02;102442.66;5057964;28;45424;-67
2022/03/24 02:32:07;;;;;;;;;24.00;21.67;;;;;22.91;51.71;102445.34;5060614;28;45454;-67
2022/03/24 02:34:47;;;;;;;;;20.67;18.67;;;;;22.91;51.95;102445.34;5040162;28;46679;-66
2022/03/24 02:37:18;;;;;;;;;24.67;23.67;;;;;22.88;52.00;102442.69;5056533;28;45413;-66
2022/03/24 02:39:45;;;;;;;;;23.00;21.67;;;;;22.91;51.67;102445.34;5039767;28;45585;-67
2022/03/24 02:42:15;;;;;;;;;25.33;23.00;;;;;22.88;51.99;102438.19;5040097;28;45447;-67
2022/03/24 02:44:49;;;;;;;;;25.67;24.67;;;;;22.90;51.85;102447.13;5039505;28;45772;-67
2022/03/24 02:47:14;;;;;;;;;26.67;24.67;;;;;22.90;51.82;102449.81;5057423;28;45498;-67
2022/03/24 02:49:40;;;;;;;;;25.00;22.33;;;;;22.90;51.96;102452.50;5056839;28;45594;-66
2022/03/24 02:52:06;;;;;;;;;26.67;24.67;;;;;22.90;51.61;102446.25;5057482;28;45541;-68
2022/03/24 02:54:32;;;;;;;;;20.67;20.67;;;;;22.91;51.74;102451.63;5057182;28;45396;-66
2022/03/24 02:56:57;;;;;;;;;24.67;22.67;;;;;22.91;51.73;102454.31;5022525;28;45510;-66
2022/03/24 02:59:22;;;;;;;;;24.00;23.33;;;;;22.93;51.54;102454.28;5057618;28;45435;-67
2022/03/24 03:01:52;;;;;;;;;27.33;24.33;;;;;22.93;51.82;102449.78;5038611;28;55247;-67
2022/03/24 03:04:18;;;;;;;;;25.00;24.00;;;;;22.95;51.89;102450.66;5055892;28;46733;-67
2022/03/24 03:06:43;;;;;;;;;25.33;23.33;;;;;22.98;51.42;102447.03;5055696;28;61927;-66
2022/03/24 03:09:08;;;;;;;;;26.00;23.33;;;;;22.98;51.40;102442.53;5038336;28;45357;-67
2022/03/24 03:11:34;;;;;;;;;23.00;20.33;;;;;23.00;51.37;102448.78;5056577;28;45479;-67
2022/03/24 03:14:00;;;;;;;;;23.33;22.33;;;;;22.99;51.44;102444.31;5054679;28;47349;-66
2022/03/24 03:16:25;;;;;;;;;22.67;20.00;;;;;23.02;51.32;102445.19;5022438;28;46546;-66
2022/03/24 03:18:51;;;;;;;;;26.00;23.33;;;;;23.02;51.22;102440.69;5056742;28;45691;-67
2022/03/24 03:21:17;;;;;;;;;22.67;21.33;;;;;23.03;51.97;102439.78;5057305;28;45522;-66
2022/03/24 03:23:43;;;;;;;;;25.33;23.33;;;;;23.03;51.30;102444.28;5038316;28;46579;-67
2022/03/24 03:26:09;;;;;;;;;25.67;24.67;;;;;23.02;51.38;102440.69;5038786;28;45312;-67
2022/03/24 03:28:35;;;;;;;;;23.00;23.00;;;;;23.03;51.63;102446.97;5056328;28;45406;-66
2022/03/24 03:31:00;;;;;;;;;25.33;25.33;;;;;23.03;51.37;102442.47;5056524;28;45280;-68
2022/03/24 03:33:26;;;;;;;;;24.67;23.33;;;;;23.02;51.39;102453.28;5038004;28;45804;-67
2022/03/24 03:35:54;;;;;;;;;22.00;22.00;;;;;23.02;51.34;102447.88;5037485;28;58076;-66
2022/03/24 03:38:20;;;;;;;;;25.67;24.67;;;;;23.03;51.38;102453.25;5056546;28;45502;-66
2022/03/24 03:40:46;;;;;;;;;24.00;24.00;;;;;22.99;51.44;102436.22;5038622;28;45416;-67
2022/03/24 03:43:12;;;;;;;;;30.00;24.00;;;;;23.03;51.48;102441.59;5056351;28;46417;-67
2022/03/24 03:45:37;;;;;;;;;25.00;22.00;;;;;23.02;51.66;102440.69;5038280;28;45393;-66
2022/03/24 03:48:03;;;;;;;;;28.33;23.67;;;;;23.03;51.54;102444.28;5056669;28;45343;-67
2022/03/24 03:50:29;;;;;;;;;26.00;20.33;;;;;23.02;51.38;102439.81;5022499;28;45267;-67
2022/03/24 03:52:54;;;;;;;;;22.33;20.33;;;;;23.01;51.58;102441.63;5055618;28;60257;-66
2022/03/24 03:55:20;;;;;;;;;26.33;25.33;;;;;23.00;51.33;102443.38;5037907;28;45546;-68
2022/03/24 03:57:45;;;;;;;;;21.00;20.67;;;;;22.99;51.02;102447.00;5052207;28;45360;-67
2022/03/24 04:02:57;;;;;;;;;28.67;23.33;;;;;22.97;51.65;102446.16;5056716;28;45794;-67
2022/03/24 04:05:25;;;;;;;;;29.33;25.33;;;;;22.96;51.67;102448.88;5055905;28;45337;-68
2022/03/24 04:07:51;;;;;;;;;24.00;23.00;;;;;22.95;51.45;102445.25;5056149;28;45550;-67
2022/03/24 04:10:17;;;;;;;;;23.33;21.00;;;;;22.95;51.24;102445.25;5038287;28;45559;-66
2022/03/24 04:12:43;;;;;;;;;24.67;21.33;;;;;22.94;51.96;102448.88;5053897;28;45672;-67
2022/03/24 04:15:09;;;;;;;;;26.00;22.00;;;;;22.93;51.47;102449.78;5037422;28;45565;-66
2022/03/24 04:17:35;;;;;;;;;23.00;20.67;;;;;22.91;51.69;102443.53;5056394;28;45241;-66
2022/03/24 04:20:00;;;;;;;;;22.00;22.00;;;;;22.94;51.43;102442.59;5037059;28;53390;-66
2022/03/24 04:22:26;;;;;;;;;25.00;22.67;;;;;22.94;51.84;102442.59;5055851;28;46393;-66
2022/03/24 04:24:51;;;;;;;;;24.00;21.00;;;;;22.90;51.25;102439.03;5054847;28;57938;-68
2022/03/24 04:27:16;;;;;;;;;29.67;23.00;;;;;22.93;51.51;102448.91;5055476;28;48828;-67
2022/03/24 04:29:42;;;;;;;;;23.33;20.67;;;;;22.92;51.48;102442.63;5055309;28;53613;-67
2022/03/24 04:32:08;;;;;;;;;23.33;21.00;;;;;22.89;51.55;102442.66;5055961;28;46062;-67
2022/03/24 04:34:33;;;;;;;;;24.00;23.00;;;;;22.91;51.81;102448.94;5055735;28;45228;-67
2022/03/24 04:36:58;;;;;;;;;23.00;22.00;;;;;22.90;51.52;102441.75;5037416;28;45450;-67
2022/03/24 04:39:24;;;;;;;;;22.33;21.00;;;;;22.90;51.65;102441.75;5055990;28;45344;-67
2022/03/24 04:41:49;;;;;;;;;26.00;22.00;;;;;22.89;51.45;102442.66;5055267;28;46228;-67
2022/03/24 04:44:15;;;;;;;;;25.00;21.67;;;;;22.88;51.38;102434.59;5037094;28;62977;-68
2022/03/24 04:46:41;;;;;;;;;23.33;21.00;;;;;22.89;51.67;102444.47;5036876;28;45328;-67
2022/03/24 04:49:08;;;;;;;;;22.00;21.67;;;;;22.89;51.22;102444.47;5055934;28;45331;-67
2022/03/24 04:51:33;;;;;;;;;25.00;23.00;;;;;22.88;51.36;102446.28;5055561;28;45833;-67
2022/03/24 04:53:59;;;;;;;;;22.00;20.33;;;;;22.87;51.23;102441.78;5037843;28;45391;-67
2022/03/24 04:56:24;;;;;;;;;24.33;20.00;;;;;22.87;51.62;102436.38;5055673;28;45737;-68
2022/03/24 04:58:49;;;;;;;;;22.00;22.00;;;;;22.86;51.24;102440.00;5055792;28;45463;-67
2022/03/24 05:01:16;;;;;;;;;23.67;22.67;;;;;22.86;51.41;102434.59;5055363;28;46653;-67
2022/03/24 05:03:46;;;;;;;;;23.00;22.00;;;;;22.85;51.64;102435.53;5055627;28;45387;-67
2022/03/24 05:06:12;;;;;;;;;21.33;21.33;;;;;22.85;51.16;102434.59;5055222;28;45548;-68
2022/03/24 05:08:37;;;;;;;;;23.33;21.33;;;;;22.83;51.59;102439.13;5055121;28;45523;-66
2022/03/24 05:11:02;;;;;;;;;20.00;19.67;;;;;22.85;51.15;102435.53;5037542;28;50312;-67
2022/03/24 05:13:28;;;;;;;;;24.00;23.33;;;;;22.84;51.48;102438.22;5054320;28;57349;-68
2022/03/24 05:15:56;;;;;;;;;21.33;21.33;;;;;22.84;51.88;102441.81;5054954;28;54544;-66
2022/03/24 05:18:21;;;;;;;;;21.67;20.00;;;;;22.83;51.47;102447.22;5055407;28;45357;-67
2022/03/24 05:20:46;;;;;;;;;22.33;19.33;;;;;22.83;51.63;102439.13;5054959;28;46360;-67
2022/03/24 05:23:12;;;;;;;;;23.00;21.33;;;;;22.83;51.56;102439.13;5053656;28;60565;-67
2022/03/24 05:25:38;;;;;;;;;22.67;22.00;;;;;22.82;51.56;102449.03;5055118;28;45603;-67
2022/03/24 05:28:04;;;;;;;;;25.00;23.33;;;;;22.79;51.59;102443.66;5036574;28;45693;-67
2022/03/24 05:30:29;;;;;;;;;24.67;21.00;;;;;22.82;51.22;102450.84;5046919;28;46378;-67
2022/03/24 05:32:55;;;;;;;;;24.33;22.00;;;;;22.81;51.62;102447.25;5054711;28;45502;-67
2022/03/24 05:35:20;;;;;;;;;21.00;21.00;;;;;22.80;51.74;102448.16;5035263;28;56148;-67
2022/03/24 05:37:45;;;;;;;;;23.67;20.67;;;;;22.76;51.68;102446.41;5053118;28;55073;-66
2022/03/24 05:40:11;;;;;;;;;26.00;23.33;;;;;22.82;51.24;102451.72;5076821;22;46654;-68
2022/03/24 05:42:37;;;;;;;;;23.33;21.33;;;;;22.83;51.42;102449.91;5089631;27;45913;-69
2022/03/24 05:45:03;;;;;;;;;28.00;23.00;;;;;22.81;51.57;102446.38;5064087;27;59154;-72
2022/03/24 05:47:28;;;;;;;;;20.33;19.00;;;;;22.83;51.68;102445.41;5075033;27;45676;-68
2022/03/24 05:49:54;;;;;;;;;23.00;19.33;;;;;22.83;51.27;102449.91;5097934;27;60419;-68
2022/03/24 05:52:19;;;;;;;;;24.33;23.00;;;;;22.82;51.51;102451.72;5098687;27;45323;-67
2022/03/24 05:54:45;;;;;;;;;25.00;22.00;;;;;22.84;51.51;102449.00;5090277;27;48563;-68
2022/03/24 05:57:11;;;;;;;;;21.33;20.00;;;;;22.83;51.47;102450.81;5091994;27;45442;-69
2022/03/24 05:59:36;;;;;;;;;21.67;21.00;;;;;22.84;51.23;102449.00;5093615;27;46201;-70
2022/03/24 06:02:01;;;;;;;;;22.00;21.00;;;;;22.85;51.15;102449.00;5089725;27;55072;-67
2022/03/24 06:04:27;;;;;;;;;23.33;19.67;;;;;22.83;51.30;102455.31;5097018;27;46224;-69
2022/03/24 06:06:56;;;;;;;;;26.00;23.00;;;;;22.84;51.06;102462.47;5077651;27;45392;-67
2022/03/24 06:09:21;;;;;;;;;22.67;21.33;;;;;22.86;51.41;102464.25;5098369;27;45917;-68
2022/03/24 06:11:47;;;;;;;;;24.00;22.33;;;;;22.86;51.07;102461.53;5079948;27;45436;-68
2022/03/24 06:14:13;;;;;;;;;21.67;21.67;;;;;22.88;51.02;102464.25;5089528;27;45475;-68
2022/03/24 06:16:39;;;;;;;;;24.00;21.33;;;;;22.88;51.27;102445.38;5098451;27;45331;-68
2022/03/24 06:19:04;;;;;;;;;23.67;22.33;;;;;22.88;51.08;102459.75;5071282;27;45946;-68
2022/03/24 06:21:30;;;;;;;;;25.00;25.00;;;;;22.86;51.03;102455.28;5092960;27;58329;-69
2022/03/24 06:23:55;;;;;;;;;22.67;20.00;;;;;22.90;51.00;102460.59;5091459;27;56421;-69
2022/03/24 06:26:23;;;;;;;;;25.33;20.67;;;;;22.89;50.97;102450.75;5088854;27;45382;-68
2022/03/24 06:28:48;;;;;;;;;30.67;25.00;;;;;22.95;50.91;102457.84;5076503;27;46873;-67
2022/03/24 06:31:14;;;;;;;;;24.00;23.67;;;;;22.97;50.63;102459.63;5079236;27;45495;-68
2022/03/24 06:33:40;;;;;;;;;24.67;23.67;;;;;23.00;50.77;102456.84;5079700;27;45276;-66
2022/03/24 06:36:06;;;;;;;;;28.67;22.33;;;;;22.98;50.72;102455.13;5065177;27;45361;-67
2022/03/24 06:38:31;;;;;;;;;25.00;23.33;;;;;23.05;50.94;102464.88;5068323;27;46088;-68
2022/03/24 06:40:56;;;;;;;;;27.33;25.67;;;;;23.08;50.71;102466.66;5095786;27;47500;-67
2022/03/24 06:43:24;;;;;;;;;24.00;21.67;;;;;23.09;50.90;102473.81;5084372;27;45598;-66
2022/03/24 06:45:51;;;;;;;;;27.33;24.00;;;;;23.07;50.57;102456.78;5095708;27;45405;-65
2022/03/24 06:48:16;;;;;;;;;24.67;24.67;;;;;23.13;50.85;102459.38;5083255;27;46453;-65
2022/03/24 06:50:42;;;;;;;;;25.33;22.67;;;;;23.14;50.68;102458.47;5086541;27;45617;-65
2022/03/24 06:53:08;;;;;;;;;31.33;24.67;;;;;23.15;50.53;102463.84;5084995;27;54862;-65
2022/03/24 06:55:34;;;;;;;;;23.67;21.67;;;;;23.16;50.59;102456.63;5078594;27;45371;-65
2022/03/24 06:57:59;;;;;;;;;26.33;24.33;;;;;23.15;50.51;102458.44;5081056;27;59899;-64
2022/03/24 07:00:24;;;;;;;;;26.00;25.67;;;;;23.18;50.46;102466.50;5096844;27;45418;-65
2022/03/24 07:02:50;;;;;;;;;29.00;22.33;;;;;23.17;50.06;102462.03;5079184;27;52166;-65
2022/03/24 07:05:15;;;;;;;;;31.33;25.00;;;;;23.20;50.42;102477.25;5092523;27;48508;-65
2022/03/24 07:07:41;;;;;;;;;25.00;21.33;;;;;23.20;50.03;102483.50;5075723;27;46647;-64
2022/03/24 07:10:08;;;;;;;;;28.00;22.33;;;;;23.18;50.17;102473.69;5090591;27;45794;-65
2022/03/24 07:12:34;;;;;;;;;26.67;23.33;;;;;23.20;50.21;102477.25;5093971;27;45599;-66
2022/03/24 07:14:59;;;;;;;;;25.00;22.33;;;;;23.17;49.83;102477.28;5095988;27;45433;-67
2022/03/24 07:17:25;;;;;;;;;25.67;21.67;;;;;23.18;50.05;102484.47;5084702;27;45946;-64
2022/03/24 07:19:50;;;;;;;;;26.00;20.33;;;;;23.15;50.39;102485.38;5093986;27;45466;-65
2022/03/24 07:22:16;;;;;;;;;31.33;23.33;;;;;23.16;50.30;102480.88;5094975;27;57918;-66
2022/03/24 07:24:42;;;;;;;;;26.67;21.67;;;;;23.13;50.24;102484.53;5089927;27;46630;-66
2022/03/24 07:27:07;;;;;;;;;21.00;20.33;;;;;23.14;50.32;102483.63;5096714;27;46365;-67
2022/03/24 07:29:32;;;;;;;;;22.00;21.00;;;;;23.13;50.39;102479.13;5089054;27;45513;-65
2022/03/24 07:31:59;;;;;;;;;24.67;22.33;;;;;23.12;50.53;102479.19;5089738;27;55590;-65
2022/03/24 07:34:25;;;;;;;;;19.33;18.00;;;;;23.11;50.40;102485.44;5093670;27;45564;-66
2022/03/24 07:36:51;;;;;;;;;22.00;18.00;;;;;23.11;49.97;102485.44;5079609;27;45961;-64
2022/03/24 07:39:16;;;;;;;;;24.67;22.00;;;;;23.10;50.47;102486.38;5072318;27;45510;-66
2022/03/24 07:41:41;;;;;;;;;21.00;19.33;;;;;23.06;52.01;102492.72;5089023;27;57038;-67
2022/03/24 07:44:07;;;;;;;;;23.33;19.67;;;;;23.05;50.65;102485.53;5094540;27;45491;-64
2022/03/24 07:46:32;;;;;;;;;24.00;23.00;;;;;23.07;50.92;102497.22;5095009;27;57339;-64
2022/03/24 07:48:58;;;;;;;;;24.00;21.00;;;;;23.07;50.62;102499.91;5094169;27;45482;-64
2022/03/24 07:51:23;;;;;;;;;21.00;21.00;;;;;23.04;50.52;102494.56;5095668;27;56355;-64
2022/03/24 07:53:48;;;;;;;;;23.33;19.67;;;;;23.03;50.22;102499.06;5093233;27;45627;-65
2022/03/24 07:56:19;;;;;;;;;19.67;18.33;;;;;23.01;50.48;102500.88;5091606;27;46071;-63
2022/03/24 07:58:44;;;;;;;;;26.00;21.33;;;;;22.98;50.00;102498.22;5098999;27;45591;-64
2022/03/24 08:01:13;;;;;;;;;23.67;22.67;;;;;22.96;50.06;102491.97;5102588;27;45590;-65
2022/03/24 08:03:38;;;;;;;;;21.33;21.33;;;;;22.95;50.15;102496.44;5104582;27;45378;-64
2022/03/24 08:06:04;;;;;;;;;20.33;19.33;;;;;22.97;49.81;102499.13;5086838;27;45932;-65
2022/03/24 08:08:30;;;;;;;;;23.00;20.33;;;;;22.95;49.93;102492.88;5085012;27;45535;-65
2022/03/24 08:10:55;;;;;;;;;25.67;20.00;;;;;22.94;50.04;102499.16;5100178;27;45366;-64
2022/03/24 08:13:21;;;;;;;;;22.67;19.67;;;;;22.92;49.83;102501.00;5095564;27;45544;-64
2022/03/24 08:15:47;;;;;;;;;23.33;20.33;;;;;22.93;49.72;102500.97;5065255;28;47785;-65
2022/03/24 08:18:13;;;;;;;;;22.67;20.00;;;;;22.92;50.08;102501.00;5069775;28;45581;-64
2022/03/24 08:20:39;;;;;;;;;21.67;20.00;;;;;22.91;50.12;102500.13;5085643;27;45491;-64
2022/03/24 08:23:05;;;;;;;;;20.00;18.67;;;;;22.92;50.09;102506.41;5092354;27;45345;-64
2022/03/24 08:25:30;;;;;;;;;20.67;19.33;;;;;22.91;49.99;102502.81;5091472;27;47582;-65
2022/03/24 08:27:56;;;;;;;;;24.00;22.00;;;;;22.90;49.69;102497.41;5091002;27;45507;-65
2022/03/24 08:30:22;;;;;;;;;26.33;21.00;;;;;22.90;49.83;102508.19;5089219;27;50982;-64
2022/03/24 08:32:47;;;;;;;;;20.00;19.00;;;;;22.87;49.93;102500.13;5092426;27;45453;-65
2022/03/24 08:35:13;;;;;;;;;24.00;21.00;;;;;22.88;50.10;102502.84;5077218;27;47582;-65
2022/03/24 08:37:39;;;;;;;;;19.67;18.67;;;;;22.86;50.26;102501.06;5093745;27;45513;-65
2022/03/24 08:40:05;;;;;;;;;22.00;20.00;;;;;22.89;49.91;102511.81;5100585;27;45560;-64
2022/03/24 08:42:30;;;;;;;;;20.33;17.67;;;;;22.86;50.19;102506.44;5094582;27;45442;-64
2022/03/24 08:44:55;;;;;;;;;25.00;20.33;;;;;22.87;50.29;102501.03;5107041;27;51891;-64
2022/03/24 08:47:21;;;;;;;;;18.67;18.67;;;;;22.87;50.05;102510.91;5092904;27;55854;-65
2022/03/24 08:49:46;;;;;;;;;25.67;21.67;;;;;22.86;49.87;102512.72;5095630;27;48083;-65
2022/03/24 08:52:12;;;;;;;;;25.33;20.00;;;;;22.87;49.87;102514.50;5095960;27;45640;-64
2022/03/24 08:54:37;;;;;;;;;20.00;18.33;;;;;22.86;50.48;102512.72;5089406;27;46743;-64
2022/03/24 08:57:03;;;;;;;;;21.67;18.67;;;;;22.86;50.67;102518.09;5096279;27;45466;-64
2022/03/24 08:59:29;;;;;;;;;19.33;18.67;;;;;22.86;50.44;102526.19;5095955;27;45507;-66
2022/03/24 09:01:54;;;;;;;;;22.67;18.00;;;;;22.85;50.91;102521.72;5088115;27;46606;-63
2022/03/24 09:04:23;;;;;;;;;21.00;18.33;;;;;22.88;50.90;102518.13;5095167;27;46463;-65
2022/03/24 09:06:49;;;;;;;;;19.33;19.33;;;;;22.87;51.06;102527.97;5076806;27;45387;-64
2022/03/24 09:09:14;;;;;;;;;17.33;17.33;;;;;22.88;51.54;102523.50;5094886;27;45173;-66
2022/03/24 09:11:40;;;;;;;;;16.33;16.33;;;;;22.88;51.36;102518.13;5093653;27;45416;-66
2022/03/24 09:14:05;;;;;;;;;21.00;18.33;;;;;22.87;51.84;102527.09;5094820;27;45983;-65
2022/03/24 09:16:30;;;;;;;;;20.00;17.67;;;;;22.87;52.39;102525.28;5095539;27;45470;-65
2022/03/24 09:18:56;;;;;;;;;19.33;19.00;;;;;22.87;52.64;102522.59;5103930;27;45444;-65
2022/03/24 09:21:22;;;;;;;;;17.33;17.00;;;;;22.87;52.52;102517.19;5100403;27;45580;-66
2022/03/24 09:23:47;;;;;;;;;25.00;21.67;;;;;22.87;52.95;102516.31;5102404;27;47670;-65
2022/03/24 09:26:13;;;;;;;;;23.33;20.00;;;;;22.88;52.69;102527.09;5093143;27;45496;-64
2022/03/24 09:28:38;;;;;;;;;27.67;20.00;;;;;22.88;53.06;102523.50;5080029;27;45518;-64
2022/03/24 09:31:04;;;;;;;;;24.67;21.33;;;;;22.87;52.99;102519.00;5091539;27;55126;-64
2022/03/24 09:33:29;;;;;;;;;24.33;17.67;;;;;22.85;53.28;102513.66;5096318;27;61023;-64
2022/03/24 09:35:55;;;;;;;;;23.67;20.00;;;;;22.87;53.18;102516.31;5097203;27;45463;-65
2022/03/24 09:38:20;;;;;;;;;18.67;15.67;;;;;22.87;53.65;102519.88;5099735;27;50436;-64
2022/03/24 09:40:46;;;;;;;;;19.67;19.67;;;;;22.87;53.76;102522.59;5099686;27;54444;-65
2022/03/24 09:43:14;;;;;;;;;16.00;15.67;;;;;22.86;54.17;102518.09;5102157;27;46796;-64
2022/03/24 09:45:41;;;;;;;;;19.33;17.33;;;;;22.84;54.04;102514.53;5066831;27;45542;-66
2022/03/24 09:48:07;;;;;;;;;22.33;19.67;;;;;22.85;54.17;102519.03;5098490;27;45458;-67
2022/03/24 09:50:36;;;;;;;;;18.33;17.00;;;;;22.86;54.66;102506.44;5100212;27;45216;-64
2022/03/24 09:53:01;;;;;;;;;21.33;16.67;;;;;22.86;54.51;102510.03;5097129;27;45660;-64
2022/03/24 09:55:30;;;;;;;;;22.00;19.00;;;;;22.85;54.44;102507.34;5096355;27;45297;-65
2022/03/24 09:57:56;;;;;;;;;18.33;17.33;;;;;22.85;54.66;102505.56;5058423;27;47207;-65
2022/03/24 10:00:22;;;;;;;;;18.67;16.67;;;;;22.85;54.93;102507.34;5101355;27;45514;-64
2022/03/24 10:03:14;;;;;;;;;19.33;18.33;;;;;22.85;55.28;102501.94;5095729;27;45476;-67
2022/03/24 10:05:58;;;;;;;;;21.00;16.67;;;;;22.80;55.16;102499.34;5093630;27;45407;-64
2022/03/24 10:08:25;;;;;;;;;18.00;15.67;;;;;22.83;55.26;102498.41;5095626;27;45446;-65
2022/03/24 10:10:55;;;;;;;;;14.00;12.33;;;;;22.84;55.13;102506.44;5095806;27;45403;-65
2022/03/24 10:13:43;;;;;;;;;19.67;17.67;;;;;22.85;55.56;102496.56;5074937;27;47791;-64
2022/03/24 10:16:09;;;;;;;;;15.00;15.00;;;;;22.84;55.45;102498.38;5092231;27;45480;-65
2022/03/24 10:18:34;;;;;;;;;20.00;17.33;;;;;22.86;55.65;102506.44;5103691;27;45574;-66
2022/03/24 10:21:03;;;;;;;;;21.00;18.33;;;;;22.86;55.64;102501.06;5099249;27;45454;-65
2022/03/24 10:23:33;;;;;;;;;17.33;14.67;;;;;22.85;55.98;102507.34;5096624;27;46895;-67
2022/03/24 10:26:03;;;;;;;;;19.00;16.67;;;;;22.84;56.02;102500.16;5097758;27;45476;-64
2022/03/24 10:28:28;;;;;;;;;18.00;17.33;;;;;22.82;55.75;102502.91;5088872;27;45641;-65
2022/03/24 10:30:57;;;;;;;;;16.67;16.67;;;;;22.80;56.12;102498.41;5102400;27;59534;-64
2022/03/24 10:33:27;;;;;;;;;17.33;17.00;;;;;22.81;56.01;102493.03;5094947;27;47657;-65
2022/03/24 10:36:10;;;;;;;;;17.00;16.00;;;;;22.83;56.07;102493.91;5098510;27;46703;-64
2022/03/24 10:38:39;;;;;;;;;15.00;15.00;;;;;22.82;56.07;102497.50;5103126;27;45377;-67
2022/03/24 10:41:16;;;;;;;;;19.00;15.00;;;;;22.82;55.89;102489.44;5099038;27;45647;-65
2022/03/24 10:43:42;;;;;;;;;17.00;17.00;;;;;22.80;56.39;102484.97;5096926;27;46581;-64
2022/03/24 10:46:21;;;;;;;;;18.67;15.00;;;;;22.82;56.18;102491.22;5076563;27;45467;-64
2022/03/24 10:48:47;;;;;;;;;17.33;16.00;;;;;22.81;56.40;102489.47;5095765;27;45457;-65
2022/03/24 10:51:30;;;;;;;;;17.67;16.00;;;;;22.78;56.46;102484.97;5096323;27;45520;-64
2022/03/24 10:54:30;;;;;;;;;20.33;15.33;;;;;22.80;56.39;102490.34;5091697;27;46643;-65
2022/03/24 10:57:01;;;;;;;;;19.33;16.33;;;;;22.79;56.32;102488.56;5096354;27;45462;-66
2022/03/24 10:59:27;;;;;;;;;16.67;14.33;;;;;22.80;56.30;102491.25;5097600;27;45419;-62
2022/03/24 11:01:53;;;;;;;;;20.33;16.33;;;;;22.79;56.46;102492.16;5077473;27;45673;-65
2022/03/24 11:04:19;;;;;;;;;17.00;13.67;;;;;22.79;56.62;102481.38;5079383;27;46784;-64
2022/03/24 11:06:52;;;;;;;;;19.33;18.00;;;;;22.79;56.58;102484.06;5098534;27;45339;-64
2022/03/24 11:09:27;;;;;;;;;21.67;18.00;;;;;22.80;56.93;102479.56;5096139;27;45564;-65